Time;durP1;ratioP1;P1;durP2;ratioP2;P2;SDS_P1;SDS_P2;PMS_P1;PMS_P2;Temp;Humidity;BMP_temperature;BMP_pressure;BME280_temperature;BME280_humidity;BME280_pressure;Samples;Min_cycle;Max_cycle;Signal;HPM_P1;HPM_P2
2023/01/05 00:01:34;;;;;;;1.05;0.98;;;;;;;-0.29;67.17;98759.22;4764108;30;20051;-90
2023/01/05 00:04:00;;;;;;;7.53;1.57;;;;;;;-0.44;66.77;98716.09;4748064;30;20040;-90
2023/01/05 00:06:26;;;;;;;1.55;1.00;;;;;;;-0.38;66.52;98723.13;4784961;29;20047;-92
2023/01/05 00:08:52;;;;;;;1.80;1.20;;;;;;;-0.13;66.01;98764.69;4803784;29;20388;-91
2023/01/05 00:22:30;;;;;;;;;;;;;;;0.08;66.00;98782.59;4791396;30;20047;-91
2023/01/05 00:25:08;;;;;;;1.88;1.10;;;;;;;0.03;66.06;98776.38;4776030;30;20404;-90
2023/01/05 00:27:35;;;;;;;1.80;1.30;;;;;;;-0.58;66.00;98688.88;4775588;30;20585;-90
2023/01/05 00:30:05;;;;;;;3.83;1.50;;;;;;;0.13;66.04;98789.88;4759547;30;20063;-90
2023/01/05 00:32:32;;;;;;;2.42;1.50;;;;;;;-0.05;66.00;98753.47;4746308;30;20051;-90
2023/01/05 00:34:58;;;;;;;2.30;1.30;;;;;;;-0.14;66.03;98730.84;4745994;30;20097;-90
2023/01/05 00:37:27;;;;;;;1.88;1.20;;;;;;;-0.21;65.86;98709.56;4761264;30;20529;-90
2023/01/05 00:39:53;;;;;;;1.00;0.90;;;;;;;0.16;66.05;98773.25;4760889;30;20096;-90
2023/01/05 00:42:20;;;;;;;1.73;1.03;;;;;;;-0.45;65.84;98674.22;4760773;30;20134;-91
2023/01/05 00:44:46;;;;;;;1.95;1.30;;;;;;;-0.29;65.82;98689.38;4760723;30;20781;-90
2023/01/05 00:47:12;;;;;;;1.88;1.20;;;;;;;-0.15;65.60;98708.56;4760925;30;20130;-90
2023/01/05 00:49:39;;;;;;;1.45;1.10;;;;;;;-0.32;65.35;98697.94;4760622;30;20147;-90
2023/01/05 00:52:05;;;;;;;3.97;1.58;;;;;;;-0.17;65.46;98709.88;4784213;30;20039;-91
2023/01/05 00:54:40;;;;;;;1.92;1.30;;;;;;;0.34;65.46;98775.53;4742721;30;20047;-91
2023/01/05 00:57:09;;;;;;;1.95;1.30;;;;;;;-0.08;65.50;98702.94;4743208;30;20043;-95
2023/01/05 00:59:35;;;;;;;2.33;1.08;;;;;;;-0.30;65.42;98660.91;4757669;30;20066;-93
2023/01/05 01:02:01;;;;;;;2.15;1.30;;;;;;;-0.12;65.43;98688.44;4747824;30;20047;-91
2023/01/05 01:04:30;;;;;;;2.03;1.13;;;;;;;0.13;65.74;98734.28;4744068;30;20039;-92
2023/01/05 01:06:56;;;;;;;1.65;1.30;;;;;;;0.14;65.28;98713.59;4772861;30;20048;-92
2023/01/05 01:09:22;;;;;;;1.58;1.20;;;;;;;-0.05;64.65;98680.94;4781999;29;20069;-92
2023/01/05 01:11:48;;;;;;;5.15;1.48;;;;;;;0.17;65.23;98726.50;4763089;30;20081;-94
2023/01/05 01:14:15;;;;;;;3.08;1.42;;;;;;;-0.13;65.92;98676.03;4760298;30;20421;-93
2023/01/05 01:16:42;;;;;;;1.75;1.10;;;;;;;0.14;66.64;98746.63;4745223;30;20055;-91
2023/01/05 01:19:13;;;;;;;1.70;1.10;;;;;;;0.13;67.88;98746.88;4745035;30;20050;-90
2023/01/05 01:21:39;;;;;;;2.30;1.25;;;;;;;0.00;69.47;98726.66;4773544;30;20047;-88
2023/01/05 01:24:06;;;;;;;2.20;1.58;;;;;;;0.00;70.05;98715.94;4742421;30;20096;-89
2023/01/05 01:26:32;;;;;;;1.98;0.70;;;;;;;0.14;70.05;98759.28;4752055;29;20034;-90
2023/01/05 01:28:58;;;;;;;1.17;0.93;;;;;;;-0.60;70.75;98650.72;4797873;29;20055;-88
2023/01/05 01:31:24;;;;;;;1.70;1.20;;;;;;;-0.19;70.95;98710.13;4800436;29;20043;-88
2023/01/05 01:33:50;;;;;;;2.55;1.42;;;;;;;0.19;70.66;98749.34;4782082;30;20126;-88
2023/01/05 01:36:17;;;;;;;2.38;1.38;;;;;;;-0.02;69.58;98716.16;4771943;29;20047;-87
2023/01/05 01:38:43;;;;;;;1.58;1.20;;;;;;;0.06;69.33;98720.22;4816847;29;20046;-90
2023/01/05 01:41:10;;;;;;;2.30;1.52;;;;;;;-0.06;69.42;98711.56;4795019;29;20207;-88
2023/01/05 01:43:50;;;;;;;4.60;1.73;;;;;;;-0.25;68.79;98665.50;4790370;29;20042;-90
2023/01/05 01:46:20;;;;;;;3.28;1.80;;;;;;;-0.39;68.51;98638.28;4816690;29;20038;-90
2023/01/05 01:48:59;;;;;;;3.15;1.55;;;;;;;0.04;68.23;98711.66;4777672;29;20047;-90
2023/01/05 01:51:45;;;;;;;1.70;1.38;;;;;;;-0.26;67.96;98680.81;4759746;30;20062;-90
2023/01/05 01:54:17;;;;;;;2.67;1.67;;;;;;;-0.54;68.06;98630.94;4782173;29;20043;-89
2023/01/05 01:56:50;;;;;;;1.85;1.50;;;;;;;-0.04;68.04;98709.41;4802786;29;20055;-91
2023/01/05 01:59:17;;;;;;;2.47;1.60;;;;;;;-0.33;67.37;98660.59;4777456;29;20090;-91
2023/01/05 02:01:50;;;;;;;2.13;1.55;;;;;;;-0.14;66.99;98674.44;4766373;29;20573;-91
2023/01/05 02:04:18;;;;;;;1.73;1.33;;;;;;;-0.05;67.08;98678.25;4792889;29;20513;-91
2023/01/05 02:06:44;;;;;;;2.53;1.50;;;;;;;0.19;67.22;98675.97;4778500;29;20070;-91
2023/01/05 02:09:11;;;;;;;2.63;1.80;;;;;;;-0.07;65.76;98623.97;4765442;29;20079;-91
2023/01/05 02:12:03;;;;;;;5.18;2.40;;;;;;;0.05;65.69;98678.31;4768267;29;20043;-90
2023/01/05 02:14:57;;;;;;;4.35;2.40;;;;;;;0.46;66.56;98740.38;4775508;30;20051;-90
2023/01/05 02:17:50;;;;;;;5.38;2.72;;;;;;;0.06;66.25;98674.56;4747599;30;20058;-91
2023/01/05 02:20:46;;;;;;;7.72;2.75;;;;;;;0.20;66.79;98742.13;4778716;29;20055;-90
2023/01/05 02:23:46;;;;;;;4.10;2.45;;;;;;;0.24;67.61;98735.16;4779843;29;20042;-91
2023/01/05 02:26:38;;;;;;;4.03;2.25;;;;;;;0.25;66.63;98738.63;4763844;29;20046;-90
2023/01/05 02:29:33;;;;;;;3.67;2.10;;;;;;;-0.33;65.86;98669.50;4778207;29;20417;-92
2023/01/05 02:32:16;;;;;;;4.10;2.63;;;;;;;-0.48;66.32;98623.72;4778618;29;20046;-91
2023/01/05 02:34:59;;;;;;;6.25;2.47;;;;;;;0.45;66.13;98728.00;4792709;29;20137;-92
2023/01/05 02:38:08;;;;;;;5.78;2.45;;;;;;;-0.26;64.74;98627.09;4765399;30;20100;-90
2023/01/05 02:40:58;;;;;;;5.35;2.70;;;;;;;-0.52;65.46;98611.88;4706144;30;20053;-91
2023/01/05 02:43:27;;;;;;;4.85;2.90;;;;;;;0.01;65.25;98681.78;4790879;29;20054;-90
2023/01/05 02:45:54;;;;;;;4.22;2.08;;;;;;;-0.37;65.25;98662.19;4762509;29;20069;-91
2023/01/05 02:48:21;;;;;;;;;;;;;;;0.14;64.33;98719.75;4793743;29;20046;-89
2023/01/05 02:51:00;;;;;;;4.57;2.65;;;;;;;0.21;64.54;98720.34;4762933;29;19925;-95
2023/01/05 02:53:57;;;;;;;4.72;2.40;;;;;;;-0.17;64.90;98669.56;4778060;29;20481;-91
2023/01/05 02:56:37;;;;;;;4.28;2.55;;;;;;;-0.54;64.92;98643.53;4778321;29;20135;-91
2023/01/05 02:59:17;;;;;;;6.80;2.88;;;;;;;-0.36;65.81;98671.88;4779057;29;20050;-92
2023/01/05 03:01:50;;;;;;;8.20;2.78;;;;;;;-0.25;66.00;98660.13;4759893;30;20522;-91
2023/01/05 03:04:32;;;;;;;4.43;2.80;;;;;;;0.01;65.61;98669.16;4782099;30;20055;-92
2023/01/05 03:07:05;;;;;;;4.90;3.17;;;;;;;0.42;64.43;98674.75;4739980;30;20574;-91
2023/01/05 03:09:36;;;;;;;5.18;2.45;;;;;;;0.22;64.14;98662.81;4768693;30;20051;-91
2023/01/05 03:15:26;;;;;;;6.88;3.65;;;;;;;0.26;66.57;98699.94;4754361;30;20048;-90
2023/01/05 03:18:04;;;;;;;8.02;3.67;;;;;;;0.30;66.11;98709.91;4739882;30;20052;-91
2023/01/05 03:20:37;;;;;;;5.65;3.15;;;;;;;-0.43;66.16;98583.50;4751531;30;20105;-92
2023/01/05 03:37:59;;;;;;;7.45;3.83;;;;;;;0.68;65.25;98670.28;4766657;30;20052;-90
2023/01/05 03:40:31;;;;;;;11.15;5.20;;;;;;;0.27;65.29;98639.75;4763113;30;20070;-94
2023/01/05 03:42:58;;;;;;;9.52;5.05;;;;;;;0.21;65.44;98607.47;4767987;30;20043;-90
2023/01/05 03:45:45;;;;;;;11.15;5.65;;;;;;;0.37;64.71;98623.66;4785077;30;20047;-90
2023/01/05 03:48:20;;;;;;;10.30;5.07;;;;;;;0.29;64.77;98624.94;4800625;30;20047;-91
2023/01/05 03:50:47;;;;;;;12.70;5.70;;;;;;;-0.16;64.25;98566.47;4757071;30;20518;-90
2023/01/05 03:53:15;;;;;;;11.65;5.15;;;;;;;-0.42;64.65;98546.72;4762154;30;20051;-91
2023/01/05 03:55:47;;;;;;;11.95;5.55;;;;;;;-0.02;64.49;98597.16;4750472;30;20043;-91
2023/01/05 03:58:13;;;;;;;11.85;5.32;;;;;;;0.38;64.49;98671.78;4806058;30;20071;-92
2023/01/05 04:00:43;;;;;;;11.68;5.28;;;;;;;0.11;63.79;98606.63;4791756;30;20051;-92
2023/01/05 04:03:12;;;;;;;10.25;4.90;;;;;;;-0.29;62.49;98546.25;4813496;29;20031;-89
2023/01/05 04:05:38;;;;;;;11.17;5.10;;;;;;;0.06;61.93;98633.44;4797359;30;20142;-92
2023/01/05 04:08:05;;;;;;;13.13;4.85;;;;;;;-0.36;62.27;98573.34;4775353;30;20094;-92
2023/01/05 04:10:34;;;;;;;8.93;4.25;;;;;;;-0.14;61.15;98608.09;4746580;30;20051;-92
2023/01/05 04:13:01;;;;;;;7.15;3.88;;;;;;;-0.20;60.85;98641.34;4757114;30;20048;-93
2023/01/05 04:15:27;;;;;;;7.35;3.45;;;;;;;-0.28;60.00;98597.00;4765523;30;20052;-92
2023/01/05 04:17:56;;;;;;;7.20;3.88;;;;;;;-0.07;60.18;98597.09;4761579;30;20040;-92
2023/01/05 04:20:22;;;;;;;8.82;4.20;;;;;;;0.13;59.58;98601.78;4779959;30;20051;-92
2023/01/05 04:22:49;;;;;;;8.95;3.90;;;;;;;-0.11;58.92;98553.03;4740431;30;20568;-91
2023/01/05 04:25:18;;;;;;;11.38;4.05;;;;;;;-0.12;58.16;98562.19;4765401;30;20070;-93
2023/01/05 04:27:44;;;;;;;5.88;3.70;;;;;;;-0.43;58.35;98561.19;4764141;30;20047;-93
2023/01/05 04:30:11;;;;;;;8.20;3.83;;;;;;;-0.72;59.13;98556.19;4771871;30;20059;-91
2023/01/05 04:32:39;;;;;;;7.90;3.60;;;;;;;-0.28;59.33;98623.06;4791437;29;20657;-90
2023/01/05 04:35:14;;;;;;;5.82;3.53;;;;;;;-0.33;59.01;98606.88;4779781;30;20050;-92
2023/01/05 04:37:41;;;;;;;8.57;4.28;;;;;;;-0.29;59.50;98603.44;4763269;29;20059;-92
2023/01/05 04:40:09;;;;;;;7.30;4.05;;;;;;;-0.25;59.49;98571.50;4768733;29;20505;-92
2023/01/05 04:42:48;;;;;;;9.10;4.10;;;;;;;-0.14;58.71;98561.63;4779771;29;20539;-92
2023/01/05 04:45:41;;;;;;;10.27;4.10;;;;;;;0.42;58.61;98654.03;4779887;29;20049;-92
2023/01/05 04:48:07;;;;;;;8.70;4.20;;;;;;;-0.25;58.90;98539.28;4753039;30;20058;-90
2023/01/05 04:50:33;;;;;;;8.13;4.82;;;;;;;-0.06;59.05;98548.50;4773401;30;20546;-90
2023/01/05 04:53:10;;;;;;;8.70;4.55;;;;;;;0.39;58.55;98603.47;4756948;30;20074;-92
2023/01/05 04:55:39;;;;;;;8.73;4.53;;;;;;;0.25;58.51;98610.44;4787928;30;20047;-92
2023/01/05 04:58:05;;;;;;;7.13;4.20;;;;;;;0.21;58.89;98607.47;4745834;30;20047;-91
2023/01/05 05:00:33;;;;;;;7.18;4.00;;;;;;;-0.10;59.73;98571.59;4741999;30;20074;-91
2023/01/05 05:03:01;;;;;;;9.30;4.50;;;;;;;0.26;59.59;98611.22;4726524;30;20238;-90
2023/01/05 05:05:27;;;;;;;10.82;4.47;;;;;;;0.14;59.57;98588.09;4743667;30;20123;-94
2023/01/05 05:07:55;;;;;;;10.02;4.78;;;;;;;-0.22;59.20;98548.69;4722331;30;20105;-94
2023/01/05 05:10:25;;;;;;;7.05;4.53;;;;;;;0.03;59.19;98575.66;4743808;30;20048;-92
2023/01/05 05:12:51;;;;;;;8.13;4.50;;;;;;;-0.19;58.87;98562.41;4744386;30;20048;-92
2023/01/05 05:15:18;;;;;;;8.13;4.57;;;;;;;-0.29;59.42;98581.16;4731802;30;20043;-91
2023/01/05 05:17:48;;;;;;;9.07;4.43;;;;;;;-0.15;59.72;98579.63;4730344;30;20052;-92
2023/01/05 05:20:17;;;;;;;8.82;4.38;;;;;;;0.16;59.96;98641.56;4755538;30;20143;-92
2023/01/05 05:22:53;;;;;;;11.43;4.75;;;;;;;0.11;60.17;98641.53;4758271;30;20165;-89
2023/01/05 05:25:44;;;;;;;;;;;;;;;;;;;;;
2023/01/05 05:28:28;;;;;;;13.20;6.28;;;;;;;-0.64;59.94;98542.28;4714419;30;20527;-91
2023/01/05 05:31:02;;;;;;;13.15;7.05;;;;;;;0.05;60.31;98645.28;4744899;30;20072;-94
2023/01/05 05:33:43;;;;;;;11.25;5.68;;;;;;;-0.27;60.39;98597.81;4727387;30;20061;-92
2023/01/05 05:36:09;;;;;;;10.40;6.07;;;;;;;-0.22;60.41;98605.09;4713108;30;20102;-91
2023/01/05 05:38:36;;;;;;;8.52;4.95;;;;;;;-0.27;59.96;98587.06;4718705;30;20059;-90
2023/01/05 05:41:02;;;;;;;10.68;5.30;;;;;;;-0.30;61.21;98604.53;4749531;30;20052;-90
2023/01/05 05:43:53;;;;;;;12.02;5.30;;;;;;;-0.02;61.83;98640.94;4729716;30;20089;-92
2023/01/05 05:46:19;;;;;;;13.20;5.55;;;;;;;-0.12;61.60;98578.28;4767509;30;20584;-94
2023/01/05 05:48:45;;;;;;;9.02;5.00;;;;;;;0.07;60.94;98586.72;4753416;30;20048;-90
2023/01/05 05:51:11;;;;;;;10.23;5.60;;;;;;;-0.18;60.32;98544.41;4722375;30;20071;-90
2023/01/05 05:53:37;;;;;;;13.70;4.68;;;;;;;-0.19;59.71;98532.06;4734460;30;20093;-91
2023/01/05 05:56:07;;;;;;;11.07;5.35;;;;;;;0.22;59.49;98563.38;4741067;30;20134;-93
2023/01/05 05:58:33;;;;;;;15.95;7.90;;;;;;;0.30;58.99;98562.06;4746051;29;20040;-90
2023/01/05 06:00:59;;;;;;;14.85;6.20;;;;;;;0.80;58.70;98629.72;4787111;29;20043;-91
2023/01/05 06:03:25;;;;;;;14.45;7.30;;;;;;;0.46;58.55;98585.25;4742137;30;20608;-92
2023/01/05 06:05:52;;;;;;;25.95;9.80;;;;;;;0.67;58.50;98591.47;4750300;30;20623;-90
2023/01/05 06:08:19;;;;;;;17.40;7.78;;;;;;;0.67;58.74;98631.00;4734938;30;20059;-92
2023/01/05 06:10:48;;;;;;;17.77;7.72;;;;;;;0.00;58.36;98500.97;4742127;30;20043;-88
2023/01/05 06:13:15;;;;;;;17.10;6.95;;;;;;;-0.01;57.71;98526.22;4783677;30;20051;-90
2023/01/05 06:15:41;;;;;;;18.98;7.32;;;;;;;-0.25;58.52;98497.13;4758601;30;20040;-89
2023/01/05 06:18:08;;;;;;;18.10;7.33;;;;;;;0.36;57.71;98569.06;4752558;30;20040;-91
2023/01/05 06:20:35;;;;;;;18.63;7.85;;;;;;;0.57;57.28;98586.06;4817386;24;20055;-90
2023/01/05 06:23:03;;;;;;;18.20;7.25;;;;;;;0.74;56.88;98606.56;4812822;29;20077;-89
2023/01/05 06:25:30;;;;;;;13.30;5.18;;;;;;;0.37;55.99;98578.75;4775535;30;20062;-89
2023/01/05 06:27:56;;;;;;;13.15;5.55;;;;;;;0.01;56.80;98548.25;4821636;24;20036;-91
2023/01/05 06:30:27;;;;;;;13.07;5.15;;;;;;;0.36;57.00;98579.00;4807333;29;20077;-90
2023/01/05 06:32:54;;;;;;;9.32;5.10;;;;;;;0.17;58.83;98587.56;4822834;24;20094;-86
2023/01/05 06:35:35;;;;;;;10.85;5.07;;;;;;;-0.44;59.26;98497.84;4834007;24;20047;-90
2023/01/05 06:42:21;;;;;;;11.18;4.75;;;;;;;0.00;59.68;98538.59;4750083;30;20071;-92
2023/01/05 06:44:47;;;;;;;10.23;4.53;;;;;;;0.00;59.05;98546.66;4732919;30;20071;-91
2023/01/05 06:47:13;;;;;;;21.20;4.85;;;;;;;0.26;58.67;98584.34;4749210;30;20066;-89
2023/01/05 06:49:55;;;;;;;13.55;5.22;;;;;;;0.38;59.00;98615.31;4788717;29;20047;-91
2023/01/05 06:52:22;;;;;;;8.30;4.55;;;;;;;-0.03;58.53;98566.78;4781141;29;20058;-90
2023/01/05 06:54:49;;;;;;;10.32;4.63;;;;;;;-0.12;57.69;98549.53;4789997;29;20629;-91
2023/01/05 06:57:15;;;;;;;13.18;4.53;;;;;;;0.39;58.21;98616.13;4781923;29;20141;-90
2023/01/05 06:59:41;;;;;;;16.10;5.50;;;;;;;-0.01;57.58;98537.75;4799920;29;20466;-91
2023/01/05 07:02:16;;;;;;;9.00;4.03;;;;;;;0.26;56.16;98616.59;4770179;30;20099;-94
2023/01/05 07:04:43;;;;;;;11.13;4.47;;;;;;;-0.39;56.15;98556.94;4803239;29;20062;-92
2023/01/05 07:07:13;;;;;;;8.52;3.95;;;;;;;-0.82;56.09;98507.81;4788581;29;20062;-90
2023/01/05 07:09:40;;;;;;;14.35;4.32;;;;;;;-0.53;56.89;98580.72;4807314;29;20046;-89
2023/01/05 07:12:07;;;;;;;7.68;4.22;;;;;;;-0.95;56.51;98509.06;4786598;29;20038;-90
2023/01/05 07:14:34;;;;;;;6.35;3.70;;;;;;;-0.43;56.41;98599.59;4787842;29;20149;-88
2023/01/05 07:17:01;;;;;;;6.97;3.88;;;;;;;-0.48;55.91;98583.44;4797078;29;20075;-88
2023/01/05 07:19:27;;;;;;;8.52;3.67;;;;;;;-0.69;55.58;98549.50;4773673;29;20046;-90
2023/01/05 07:21:53;;;;;;;7.80;3.90;;;;;;;-0.61;55.90;98573.16;4772442;29;20352;-91
2023/01/05 07:24:20;;;;;;;11.10;5.32;;;;;;;-0.53;56.73;98581.56;4782426;29;20047;-90
2023/01/05 07:26:49;;;;;;;7.00;3.97;;;;;;;-0.52;55.82;98611.88;4771694;30;20055;-89
2023/01/05 07:29:16;;;;;;;7.80;3.35;;;;;;;-0.96;55.91;98547.69;4730543;30;20086;-92
2023/01/05 07:31:42;;;;;;;11.77;4.60;;;;;;;-0.92;56.35;98539.94;4731296;30;20091;-90
2023/01/05 07:34:09;;;;;;;8.57;4.30;;;;;;;-0.49;56.61;98616.75;4770816;30;20044;-91
2023/01/05 07:36:35;;;;;;;11.50;4.22;;;;;;;-0.76;57.05;98563.94;4773834;29;20066;-89
2023/01/05 07:39:07;;;;;;;11.88;4.05;;;;;;;-1.25;57.43;98489.00;4793418;29;20793;-91
2023/01/05 07:41:33;;;;;;;13.98;5.00;;;;;;;-0.59;58.09;98630.09;4767987;30;20442;-93
2023/01/05 07:43:59;;;;;;;12.02;5.15;;;;;;;-1.21;59.17;98519.59;4782345;29;20112;-91
2023/01/05 07:46:26;;;;;;;12.45;6.50;;;;;;;-0.99;59.86;98553.59;4775361;29;20058;-92
2023/01/05 07:48:53;;;;;;;11.38;5.57;;;;;;;-0.63;60.35;98623.59;4747355;30;20048;-90
2023/01/05 07:51:21;;;;;;;9.90;5.40;;;;;;;-0.65;59.72;98601.59;4774357;29;20082;-90
2023/01/05 07:53:56;;;;;;;11.32;5.55;;;;;;;-0.80;60.33;98568.19;4758182;29;20060;-90
2023/01/05 07:56:23;;;;;;;10.90;5.55;;;;;;;-1.00;59.72;98547.38;4772201;29;20077;-90
2023/01/05 07:58:55;;;;;;;14.82;6.10;;;;;;;-1.19;60.13;98506.75;4773392;30;20051;-93
2023/01/05 08:01:22;;;;;;;13.68;5.38;;;;;;;-0.48;59.80;98612.97;4786512;29;20067;-91
2023/01/05 08:03:48;;;;;;;9.95;5.78;;;;;;;-0.61;60.01;98567.78;4774501;29;20730;-92
2023/01/05 08:06:17;;;;;;;12.00;5.55;;;;;;;-0.67;58.53;98534.75;4822849;24;20047;-90
2023/01/05 08:08:45;;;;;;;9.85;5.35;;;;;;;-0.52;59.27;98574.31;4944967;24;20064;-91
2023/01/05 08:11:17;;;;;;;11.35;5.30;;;;;;;-0.58;58.75;98556.53;4902895;24;20042;-90
2023/01/05 08:17:14;;;;;;;11.20;5.72;;;;;;;-0.33;58.38;98594.31;4828506;29;20022;-89
2023/01/05 08:19:45;;;;;;;15.50;5.72;;;;;;;-1.03;58.55;98483.53;4828126;29;20099;-91
2023/01/05 08:22:11;;;;;;;9.68;5.80;;;;;;;-0.66;57.67;98531.00;4794439;29;20033;-92
2023/01/05 08:24:38;;;;;;;11.13;5.68;;;;;;;-1.09;57.92;98491.78;4796557;29;20062;-92
2023/01/05 08:30:20;;;;;;;10.48;5.50;;;;;;;-0.80;58.64;98546.72;4802972;29;20079;-90
2023/01/05 08:32:46;;;;;;;12.95;5.32;;;;;;;-1.05;58.07;98523.22;4781431;29;20429;-92
2023/01/05 08:35:14;;;;;;;8.90;5.30;;;;;;;-0.69;58.02;98558.38;4776603;29;20136;-92
2023/01/05 08:38:01;;;;;;;9.98;5.60;;;;;;;-1.06;58.22;98492.09;4744818;30;20083;-90
2023/01/05 08:40:27;;;;;;;10.82;5.25;;;;;;;-1.10;57.83;98499.03;4770644;29;20118;-91
2023/01/05 08:42:55;;;;;;;11.35;5.95;;;;;;;-0.51;58.35;98600.88;4787835;29;20057;-90
2023/01/05 08:45:22;;;;;;;10.52;5.60;;;;;;;-0.62;58.66;98564.31;4788164;29;20055;-90
2023/01/05 08:47:50;;;;;;;;;;;;;;;-0.39;58.77;98589.16;4789053;29;20554;-90
2023/01/05 08:50:17;;;;;;;9.43;5.18;;;;;;;-0.74;58.01;98518.06;4777021;30;19933;-90
2023/01/05 08:52:43;;;;;;;11.10;5.30;;;;;;;-0.95;58.07;98479.56;4755467;30;20039;-90
2023/01/05 08:55:10;;;;;;;10.27;5.53;;;;;;;-0.38;57.76;98542.44;4778397;30;20055;-90
2023/01/05 08:57:36;;;;;;;11.07;5.77;;;;;;;-0.81;57.28;98461.94;4773447;30;20035;-90
2023/01/05 09:00:20;;;;;;;11.60;6.22;;;;;;;-0.41;57.59;98530.34;4786364;30;20194;-88
2023/01/05 09:03:14;;;;;;;10.50;5.88;;;;;;;-0.17;58.00;98568.31;4791702;29;20066;-92
2023/01/05 09:05:41;;;;;;;12.23;6.03;;;;;;;-0.45;58.38;98545.34;4771871;29;20051;-91
2023/01/05 09:08:33;;;;;;;14.45;6.22;;;;;;;-0.28;58.87;98562.09;4790829;29;20055;-88
2023/01/05 09:14:02;;;;;;;10.48;5.75;;;;;;;-0.95;58.21;98453.56;4804633;29;20057;-89
2023/01/05 09:16:34;;;;;;;13.88;6.63;;;;;;;-0.95;58.06;98442.81;4775858;29;20050;-90
2023/01/05 09:19:03;;;;;;;14.25;6.28;;;;;;;-0.33;58.43;98559.41;4791096;29;20418;-89
2023/01/05 09:21:29;;;;;;;15.23;6.65;;;;;;;-0.36;58.75;98554.53;4785744;30;20450;-90
2023/01/05 09:23:55;;;;;;;12.97;7.13;;;;;;;-1.01;58.26;98435.00;4771862;30;20096;-89
2023/01/05 09:26:23;;;;;;;18.00;7.65;;;;;;;-0.92;59.08;98427.28;4739823;30;20217;-89
2023/01/05 09:28:50;;;;;;;17.98;7.25;;;;;;;-0.48;58.54;98470.69;4769528;30;20126;-89
2023/01/05 09:31:37;;;;;;;;;;;;;;;-0.04;58.85;98538.28;4740327;30;20046;-89
2023/01/05 09:34:03;;;;;;;13.27;6.90;;;;;;;-0.29;58.71;98492.53;4746864;30;20474;-90
2023/01/05 09:36:31;;;;;;;14.10;6.55;;;;;;;-0.25;58.46;98502.50;4746840;30;20060;-87
2023/01/05 09:38:57;;;;;;;17.15;7.32;;;;;;;-0.85;57.99;98420.59;4737589;30;20058;-88
2023/01/05 09:41:52;;;;;;;11.55;6.63;;;;;;;-0.83;58.24;98412.28;4726666;30;20056;-89
2023/01/05 09:44:46;;;;;;;12.05;5.85;;;;;;;-0.28;58.65;98526.38;4775064;24;20085;-88
2023/01/05 09:47:25;;;;;;;12.77;6.35;;;;;;;-0.28;58.99;98524.50;4800964;29;20078;-91
2023/01/05 09:49:53;;;;;;;15.73;7.93;;;;;;;-0.65;58.59;98470.09;4806943;29;20035;-90
2023/01/05 09:52:24;;;;;;;16.67;7.50;;;;;;;-0.71;58.78;98456.63;4780081;29;20047;-91
2023/01/05 09:54:52;;;;;;;15.18;7.95;;;;;;;-1.03;59.28;98437.13;4773205;29;20039;-90
2023/01/05 09:57:37;;;;;;;14.85;7.47;;;;;;;-0.66;59.36;98509.53;4786680;29;20051;-90
2023/01/05 10:00:14;;;;;;;15.32;7.82;;;;;;;-1.10;59.48;98474.09;4782507;29;20054;-90
2023/01/05 10:02:40;;;;;;;;;;;;;;;-0.84;59.72;98507.25;4780790;29;20074;-90
2023/01/05 10:05:14;;;;;;;16.27;9.35;;;;;;;-1.29;59.49;98418.22;4779075;29;19968;-90
2023/01/05 10:08:32;;;;;;;23.40;8.15;;;;;;;-1.10;59.31;98409.72;4797774;29;20099;-90
2023/01/05 10:14:11;;;;;;;14.50;8.13;;;;;;;-0.61;58.46;98498.00;4796865;29;20921;-88
2023/01/05 10:16:42;;;;;;;16.95;8.07;;;;;;;-1.16;59.80;98467.06;4775671;29;20099;-89
2023/01/05 10:19:15;;;;;;;18.27;8.75;;;;;;;-1.20;59.72;98472.13;4786330;29;20492;-89
2023/01/05 10:22:31;;;;;;;17.13;8.52;;;;;;;-1.01;60.27;98499.38;4792877;29;20057;-92
2023/01/05 10:25:33;;;;;;;13.00;6.65;;;;;;;-1.02;59.87;98505.81;4792246;29;20054;-89
2023/01/05 10:28:21;;;;;;;15.70;7.72;;;;;;;-1.01;59.70;98499.38;4788857;29;20113;-89
2023/01/05 10:30:59;;;;;;;15.68;7.47;;;;;;;-1.01;60.47;98500.19;4790754;29;20081;-91
2023/01/05 10:33:40;;;;;;;21.20;7.75;;;;;;;-0.92;59.65;98491.66;4785262;29;20116;-91
2023/01/05 10:36:31;;;;;;;15.75;7.15;;;;;;;-0.84;59.41;98502.69;4789540;29;20046;-89
2023/01/05 10:39:10;;;;;;;14.77;7.07;;;;;;;-1.09;58.14;98427.41;4792151;29;20046;-90
2023/01/05 10:42:07;;;;;;;14.90;6.75;;;;;;;-0.78;58.65;98498.19;4779114;29;20043;-90
2023/01/05 10:44:57;;;;;;;32.38;15.55;;;;;;;-0.59;57.57;98496.69;4792658;29;20055;-90
2023/01/05 10:47:37;;;;;;;18.80;8.47;;;;;;;-0.99;57.55;98492.69;4771457;29;20046;-89
2023/01/05 10:50:35;;;;;;;17.48;8.32;;;;;;;-1.37;58.11;98424.03;4769134;29;20287;-91
2023/01/05 10:53:17;;;;;;;11.73;6.10;;;;;;;-1.63;57.54;98382.03;4783589;29;20055;-93
2023/01/05 10:59:19;;;;;;;15.48;6.50;;;;;;;-1.33;57.63;98430.47;4742378;30;20518;-92
2023/01/05 11:02:27;;;;;;;15.18;6.35;;;;;;;-1.14;57.18;98468.44;4744963;29;20110;-92
2023/01/05 11:05:25;;;;;;;14.05;6.18;;;;;;;-1.04;57.01;98475.75;4693551;30;20105;-90
2023/01/05 11:08:26;;;;;;;11.60;5.88;;;;;;;-1.12;57.71;98487.78;4687120;30;20061;-92
2023/01/05 11:11:03;;;;;;;11.85;5.70;;;;;;;-0.86;56.28;98514.75;4685084;30;20140;-91
2023/01/05 11:13:47;;;;;;;13.32;5.32;;;;;;;-1.25;57.05;98450.66;4700459;30;20108;-90
2023/01/05 11:16:46;;;;;;;14.95;6.40;;;;;;;-1.02;57.29;98511.19;4688470;30;20045;-91
2023/01/05 11:19:17;;;;;;;18.73;6.55;;;;;;;-1.12;56.14;98487.78;4670322;30;20099;-92
2023/01/05 11:21:53;;;;;;;16.23;5.28;;;;;;;-1.25;56.28;98472.91;4675546;30;20104;-90
2023/01/05 11:25:36;;;;;;;14.68;5.45;;;;;;;-1.06;56.78;98510.06;4687382;30;20049;-93
2023/01/05 11:34:17;;;;;;;;;;;;;;;;;;;;;
2023/01/05 11:42:59;;;;;;;13.65;7.05;;;;;;;-2.24;57.26;98471.44;5151029;24;20055;-91
2023/01/05 11:45:31;;;;;;;;;;;;;;;-2.11;58.12;98513.09;4770772;30;20072;-91
2023/01/05 11:48:02;;;;;;;9.52;4.90;;;;;;;-2.52;57.52;98432.28;4789084;29;19925;-90
2023/01/05 11:50:33;;;;;;;11.52;5.63;;;;;;;-2.46;57.32;98436.66;4760100;30;20055;-93
2023/01/05 11:53:01;;;;;;;15.65;6.20;;;;;;;-2.51;57.69;98439.28;4788359;29;20042;-91
2023/01/05 11:55:55;;;;;;;13.88;5.65;;;;;;;-2.21;56.85;98456.75;4758200;29;20081;-89
2023/01/05 11:58:30;;;;;;;14.07;5.45;;;;;;;-2.17;56.21;98463.22;4812635;24;20058;-92
2023/01/05 12:01:43;;;;;;;17.58;6.85;;;;;;;-2.18;57.97;98515.94;4774539;24;20418;-93
2023/01/05 12:04:43;;;;;;;15.38;6.72;;;;;;;-2.43;57.34;98483.50;4775075;30;20055;-92
2023/01/05 12:08:08;;;;;;;;;;;;;;;;;;;;;
2023/01/05 12:11:21;;;;;;;14.13;4.82;;;;;;;-2.87;57.94;98435.34;4795023;29;20543;-93
2023/01/05 12:14:40;;;;;;;11.98;5.75;;;;;;;-2.17;56.50;98506.84;4780572;30;20055;-94
2023/01/05 12:18:00;;;;;;;11.85;5.50;;;;;;;-2.63;55.09;98395.78;4761254;30;20051;-89
2023/01/05 12:20:54;;;;;;;11.18;5.50;;;;;;;-2.28;54.61;98478.34;4786329;24;20154;-90
2023/01/05 12:23:42;;;;;;;10.98;5.72;;;;;;;-2.27;55.38;98500.56;4760217;29;20513;-91
2023/01/05 12:27:03;;;;;;;16.38;6.15;;;;;;;-2.23;55.19;98507.84;4776114;29;20043;-90
2023/01/05 12:30:08;;;;;;;14.40;5.45;;;;;;;-2.22;54.75;98509.50;4806467;24;20059;-93
2023/01/05 12:33:20;;;;;;;15.60;6.75;;;;;;;-2.25;55.00;98507.31;4760434;30;20047;-91
2023/01/05 12:36:28;;;;;;;17.98;6.97;;;;;;;-2.91;54.75;98448.41;4771884;30;20525;-91
2023/01/05 12:39:32;;;;;;;16.92;6.50;;;;;;;-2.53;55.27;98516.31;4734658;30;20156;-90
2023/01/05 12:46:37;;;;;;;14.68;5.70;;;;;;;-2.72;54.62;98520.31;4770912;30;20039;-91
2023/01/05 12:49:21;;;;;;;12.63;5.82;;;;;;;-3.15;55.13;98474.50;4754371;30;20082;-91
2023/01/05 12:52:16;;;;;;;18.90;6.43;;;;;;;-3.36;54.98;98427.97;4764633;30;20042;-91
2023/01/05 12:55:09;;;;;;;12.38;5.07;;;;;;;-3.11;54.98;98483.66;4748879;30;20078;-89
2023/01/05 12:57:40;;;;;;;13.88;6.35;;;;;;;-3.31;54.91;98451.28;4760718;30;20086;-90
2023/01/05 13:00:11;;;;;;;12.43;6.20;;;;;;;-2.77;55.27;98512.22;4748125;30;20070;-88
2023/01/05 13:03:01;;;;;;;15.43;5.35;;;;;;;-3.19;54.84;98481.41;4707180;30;20522;-89
2023/01/05 13:05:40;;;;;;;16.23;5.95;;;;;;;-2.92;54.18;98494.91;4741549;30;20070;-90
2023/01/05 13:08:22;;;;;;;15.30;5.68;;;;;;;-2.76;55.09;98525.34;4733742;30;20084;-90
2023/01/05 13:11:37;;;;;;;15.25;5.53;;;;;;;-3.19;54.23;98435.16;4740223;30;20050;-89
2023/01/05 13:14:09;;;;;;;12.27;5.40;;;;;;;-3.28;54.36;98445.44;4721189;30;20065;-89
2023/01/05 13:16:40;;;;;;;13.07;5.65;;;;;;;-3.31;53.74;98420.03;4703220;30;20109;-89
2023/01/05 13:19:16;;;;;;;16.65;5.80;;;;;;;-2.83;54.16;98530.06;4746480;30;20050;-91
2023/01/05 13:21:47;;;;;;;13.00;5.20;;;;;;;-3.41;54.35;98453.78;4717778;30;20113;-90